Rockport, WA

8:51 PM PDT on September 17, 2014 (GMT -0700)
Newhalem Helistop | Change Station
CLOSE
Current Station
Personal Weather Station
Location: Newhalem, WA
Elevation: 504 ft
Nearby Weather Stations
4.0 Earthquake: Seabeck, Washington (17 hours ago)  

Elev 504 ft 48.67 °N, 121.25 °W | Updated 5 seconds ago

Overcast
Overcast
66.4 °F
Feels Like 66.4 °F
N
3.0
Wind Variable Wind from NNE
Gusts 6.0 mph

Today
High -- | Low -- °F
--% Chance of Precip.
Yesterday
High -- | Low -- °F
Precip. -- in
6:44 AM 7:13 PM
Waning Crescent, 30% visible
Pressure 29.79 in
Visibility 10.0 miles
Clouds Scattered Clouds 2400 ft
Mostly Cloudy 9000 ft
Overcast 12000 ft
Dew Point 60 °F
Humidity 80%
Rainfall 0.00 in
Snow Depth 0 in , 0 in , 0 in
UV 0.0 out of 12
Pollen 1.40 out of 12
PM2.5 Good
Flu Activity Not available.
METAR KAWO 180335Z AUTO 21008KT 10SM SCT024 BKN090 OVC120 17/13 A2979 RMK AO1

More Conditions Fewer Conditions

Pressure 29.79 in
Visibility 10.0 miles
Clouds Scattered Clouds 2400 ft
Mostly Cloudy 9000 ft
Overcast 12000 ft
Dew Point 60 °F
Humidity 80%
Rainfall 0.00 in
Snow Depth 0 in , 0 in , 0 in
UV 0.0 out of 12
Pollen 1.40 out of 12
PM2.5 Good
Flu Activity Not available.
METAR KAWO 180335Z AUTO 21008KT 10SM SCT024 BKN090 OVC120 17/13 A2979 RMK AO1

More Conditions Fewer Conditions

10-Day Weather Forecast

Almanac

Astronomy

Sep. 17, 2014 Rise Set
Actual Time 6:44 AM PDT 7:13 PM PDT
Civil Twilight 6:13 AM PDT 7:44 PM PDT
Nautical Twilight 5:35 AM PDT 8:22 PM PDT
Astronomical Twilight 4:56 AM PDT 9:00 PM PDT
Moon 12:28 AM PDT (9/17) 3:46 PM PDT (9/17)
Length of Visible Light 13h 31m
Length of Day
12h 28m
Tomorrow will be 3m 32s shorter.
Waning Crescent, 30% of the Moon is Illuminated
Today
Waning Crescent
Sep 24
New
Oct 1
First Quarter
Oct 8
Full
Oct 15
Last Quarter

Today's Extremes

State Highs State Lows

Community

WunderPhotos

Upload Photos

1,754,283 photos uploaded!

Nearby

Air Quality

  Air Quality AQ Index Pollutant
Yesterday Good
PM2.5
Current Good
PM2.5
Wednesday Good
PM2.5
Wednesday Good
OZONE
Thursday Good
OZONE
Thursday Good
PM2.5
Friday Good
OZONE
Friday Good
PM2.5
Saturday Good
PM2.5
Saturday Good
OZONE
Sunday Good
PM2.5
Sunday Good
OZONE
Monday Good
OZONE
Monday Good
PM2.5

Snow Depth

Station Depth Elevation
Alpine Meadows 0 in 3500 ft
Grouse Camp 0 in 5380 ft
June Lake 0 in 3340 ft
Wells Creek 0 in 4200 ft
Surprise Lakes 0 in 4250 ft

Earthquake Activity

City Distance Mag. Time & Date
Seabeck, Washington 111 miles 4.0 3:06 AM PDT
2014-09-17
Minimum magnitude displayed is 2.5.

Coastal Water Temperatures

Place Temperature
No Stations Reporting

Nearby Weather Stations